Time;durP1;ratioP1;P1;durP2;ratioP2;P2;SDS_P1;SDS_P2;PMS_P1;PMS_P2;Temp;Humidity;BMP_temperature;BMP_pressure;BME280_temperature;BME280_humidity;BME280_pressure;Samples;Min_cycle;Max_cycle;Signal;HPM_P1;HPM_P2
2022/07/24 00:02:16;;;;;;;12.63;4.70;;;;;;;;;;5051584;28;20049;-65
2022/07/24 00:04:42;;;;;;;9.73;4.72;;;;;;;;;;5052382;28;20132;-66
2022/07/24 00:07:08;;;;;;;11.70;4.57;;;;;;;;;;5052464;28;20469;-66
2022/07/24 00:09:34;;;;;;;10.48;4.60;;;;;;;;;;5052724;28;20463;-66
2022/07/24 00:12:00;;;;;;;10.23;4.72;;;;;;;;;;5052512;28;20516;-65
2022/07/24 00:14:26;;;;;;;10.48;4.65;;;;;;;;;;5053343;28;20063;-65
2022/07/24 00:16:53;;;;;;;11.25;4.63;;;;;;;;;;5052426;28;20044;-65
2022/07/24 00:19:19;;;;;;;12.10;5.18;;;;;;;;;;5052557;28;20323;-66
2022/07/24 00:21:45;;;;;;;11.80;4.68;;;;;;;;;;5052652;28;20408;-65
2022/07/24 00:24:11;;;;;;;10.23;4.70;;;;;;;;;;5052361;28;20396;-66
2022/07/24 00:26:37;;;;;;;9.93;4.85;;;;;;;;;;5052207;28;20124;-66
2022/07/24 00:29:03;;;;;;;10.38;4.68;;;;;;;;;;5052265;28;20127;-66
2022/07/24 00:31:29;;;;;;;10.68;5.10;;;;;;;;;;5052402;28;20135;-65
2022/07/24 00:33:55;;;;;;;10.43;5.22;;;;;;;;;;5052502;28;20106;-66
2022/07/24 00:36:21;;;;;;;12.13;5.18;;;;;;;;;;5052156;28;20041;-65
2022/07/24 00:38:47;;;;;;;10.90;5.20;;;;;;;;;;5052238;28;20048;-66
2022/07/24 00:41:13;;;;;;;9.75;5.20;;;;;;;;;;5052144;28;20626;-66
2022/07/24 00:43:39;;;;;;;;;;;;;;;;;;5034736;28;20044;-65
2022/07/24 00:46:05;;;;;;;12.40;5.35;;;;;;;;;;5053171;28;19921;-65
2022/07/24 00:48:31;;;;;;;11.82;5.30;;;;;;;;;;5055941;28;20051;-65
2022/07/24 00:50:57;;;;;;;11.25;5.18;;;;;;;;;;5054685;28;20048;-66
2022/07/24 00:53:23;;;;;;;;;;;;;;;;;;5056296;28;20099;-66
2022/07/24 00:55:49;;;;;;;10.60;5.35;;;;;;;;;;5055763;28;19920;-65
2022/07/24 00:58:15;;;;;;;10.07;5.18;;;;;;;;;;5055870;28;20045;-66
2022/07/24 01:00:42;;;;;;;12.45;5.22;;;;;;;;;;5055970;28;20045;-65
2022/07/24 01:03:08;;;;;;;11.75;5.45;;;;;;;;;;5056117;28;20103;-65
2022/07/24 01:05:34;;;;;;;12.10;5.13;;;;;;;;;;5055541;28;20106;-67
2022/07/24 01:08:01;;;;;;;12.13;4.97;;;;;;;;;;5055287;28;20040;-66
2022/07/24 01:10:27;;;;;;;11.00;5.10;;;;;;;;;;5055465;28;20144;-66
2022/07/24 01:12:53;;;;;;;10.60;5.45;;;;;;;;;;5055762;28;20060;-66
2022/07/24 01:15:19;;;;;;;11.18;5.28;;;;;;;;;;5055459;28;20492;-66
2022/07/24 01:17:45;;;;;;;12.07;4.90;;;;;;;;;;5055037;28;20417;-66
2022/07/24 01:20:11;;;;;;;10.15;5.43;;;;;;;;;;5055352;28;20462;-66
2022/07/24 01:22:37;;;;;;;;;;;;;;;;;;5055704;28;20049;-72
2022/07/24 01:25:04;;;;;;;9.98;4.90;;;;;;;;;;5055726;28;19932;-66
2022/07/24 01:27:30;;;;;;;;;;;;;;;;;;5055759;28;20049;-65
2022/07/24 01:29:56;;;;;;;9.98;4.90;;;;;;;;;;5054981;28;19921;-66
2022/07/24 01:32:22;;;;;;;12.95;5.40;;;;;;;;;;5056051;28;20457;-66
2022/07/24 01:34:48;;;;;;;10.55;5.00;;;;;;;;;;5054887;28;20057;-66
2022/07/24 01:37:14;;;;;;;10.70;5.30;;;;;;;;;;5055070;28;20053;-66
2022/07/24 01:39:40;;;;;;;9.80;4.95;;;;;;;;;;5054999;28;20133;-73
2022/07/24 01:42:06;;;;;;;12.15;5.25;;;;;;;;;;5054996;28;20124;-65
2022/07/24 01:44:32;;;;;;;9.52;5.18;;;;;;;;;;5054844;28;20045;-65
2022/07/24 01:46:58;;;;;;;11.60;5.35;;;;;;;;;;5054893;28;20132;-65
2022/07/24 01:49:24;;;;;;;10.65;5.32;;;;;;;;;;5055511;28;20048;-65
2022/07/24 01:51:50;;;;;;;;;;;;;;;;;;5055195;28;20499;-66
2022/07/24 01:54:16;;;;;;;12.68;5.45;;;;;;;;;;5054716;28;19920;-66
2022/07/24 01:56:42;;;;;;;10.38;5.15;;;;;;;;;;5054942;28;20489;-69
2022/07/24 01:59:08;;;;;;;11.10;5.43;;;;;;;;;;5054327;28;20447;-66
2022/07/24 02:01:35;;;;;;;10.57;5.18;;;;;;;;;;5054864;28;20382;-65
2022/07/24 02:04:01;;;;;;;10.35;4.93;;;;;;;;;;5054795;28;20048;-64
2022/07/24 02:06:27;;;;;;;12.93;5.53;;;;;;;;;;5054517;28;20197;-65
2022/07/24 02:08:53;;;;;;;12.43;5.53;;;;;;;;;;5037117;28;20059;-66
2022/07/24 02:11:19;;;;;;;;;;;;;;;;;;5054844;28;20393;-65
2022/07/24 02:13:45;;;;;;;11.07;5.47;;;;;;;;;;5054189;28;19921;-66
2022/07/24 02:16:11;;;;;;;12.77;5.95;;;;;;;;;;5053984;28;20045;-65
2022/07/24 02:18:37;;;;;;;;;;;;;;;;;;5055099;28;20080;-65
2022/07/24 02:21:03;;;;;;;13.50;6.60;;;;;;;;;;5054396;28;19925;-66
2022/07/24 02:23:29;;;;;;;10.43;5.70;;;;;;;;;;5054491;28;20091;-65
2022/07/24 02:25:55;;;;;;;11.25;6.00;;;;;;;;;;5053957;28;20481;-66
2022/07/24 02:28:22;;;;;;;10.52;5.35;;;;;;;;;;5054237;28;20048;-66
2022/07/24 02:30:48;;;;;;;12.98;5.95;;;;;;;;;;5054224;28;20385;-67
2022/07/24 02:33:14;;;;;;;;;;;;;;;;;;5055354;28;20094;-66
2022/07/24 02:35:40;;;;;;;11.48;6.22;;;;;;;;;;5054068;28;20018;-66
2022/07/24 02:38:06;;;;;;;12.68;6.07;;;;;;;;;;5053680;28;20163;-66
2022/07/24 02:40:32;;;;;;;12.88;6.32;;;;;;;;;;5054058;28;20171;-65
2022/07/24 02:42:58;;;;;;;11.75;6.22;;;;;;;;;;5054384;28;20067;-66
2022/07/24 02:45:24;;;;;;;;;;;;;;;;;;5054216;28;20048;-66
2022/07/24 02:47:52;;;;;;;12.45;6.38;;;;;;;;;;5053947;28;19921;-66
2022/07/24 02:50:18;;;;;;;10.70;5.85;;;;;;;;;;5053843;28;20048;-66
2022/07/24 02:52:44;;;;;;;10.63;6.15;;;;;;;;;;5036974;28;20101;-66
2022/07/24 02:55:10;;;;;;;11.93;5.85;;;;;;;;;;5053643;28;20088;-65
2022/07/24 02:57:37;;;;;;;12.02;6.60;;;;;;;;;;5053509;28;20041;-65
2022/07/24 03:00:03;;;;;;;;;;;;;;;;;;5053993;28;20084;-65
2022/07/24 03:02:29;;;;;;;13.82;6.18;;;;;;;;;;5053458;28;19921;-65
2022/07/24 03:04:55;;;;;;;12.95;6.63;;;;;;;;;;5053302;28;20099;-66
2022/07/24 03:07:21;;;;;;;12.48;6.63;;;;;;;;;;5053330;28;20082;-65
2022/07/24 03:09:47;;;;;;;11.85;6.05;;;;;;;;;;5052899;28;20087;-65
2022/07/24 03:12:13;;;;;;;13.25;6.45;;;;;;;;;;5053236;28;20041;-65
2022/07/24 03:14:39;;;;;;;13.35;6.85;;;;;;;;;;5053799;28;20052;-65
2022/07/24 03:17:05;;;;;;;12.60;6.82;;;;;;;;;;5052969;28;20045;-65
2022/07/24 03:19:32;;;;;;;11.75;6.65;;;;;;;;;;5053226;28;20049;-65
2022/07/24 03:21:58;;;;;;;12.35;6.82;;;;;;;;;;5051554;28;20045;-66
2022/07/24 03:24:24;;;;;;;11.98;6.57;;;;;;;;;;5052401;28;20136;-65
2022/07/24 03:26:50;;;;;;;12.60;6.90;;;;;;;;;;5051299;28;20045;-66
2022/07/24 03:29:16;;;;;;;12.82;6.88;;;;;;;;;;5052678;28;20064;-65
2022/07/24 03:31:42;;;;;;;12.30;7.13;;;;;;;;;;5052035;28;20099;-65
2022/07/24 03:34:09;;;;;;;12.05;6.80;;;;;;;;;;5052102;28;20485;-65
2022/07/24 03:36:35;;;;;;;13.23;7.40;;;;;;;;;;5052220;28;20040;-64
2022/07/24 03:39:01;;;;;;;14.13;6.75;;;;;;;;;;5034498;28;20053;-65
2022/07/24 03:41:27;;;;;;;;;;;;;;;;;;5053194;28;20080;-65
2022/07/24 03:43:54;;;;;;;13.25;7.28;;;;;;;;;;5051846;28;20284;-65
2022/07/24 03:46:20;;;;;;;12.82;6.70;;;;;;;;;;5051864;28;20048;-65
2022/07/24 03:48:46;;;;;;;14.27;7.25;;;;;;;;;;5034138;28;20127;-64
2022/07/24 03:51:12;;;;;;;13.60;7.80;;;;;;;;;;5052266;28;20381;-64
2022/07/24 03:53:38;;;;;;;15.40;7.10;;;;;;;;;;5051708;28;20477;-65
2022/07/24 03:56:06;;;;;;;13.57;7.45;;;;;;;;;;5051618;28;20056;-64
2022/07/24 03:58:32;;;;;;;12.88;6.97;;;;;;;;;;5052090;28;20056;-64
2022/07/24 04:00:58;;;;;;;14.45;7.50;;;;;;;;;;5051488;28;20044;-73
2022/07/24 04:03:24;;;;;;;;;;;;;;;;;;5052331;28;20052;-65
2022/07/24 04:05:50;;;;;;;14.85;7.55;;;;;;;;;;5052049;28;20368;-65
2022/07/24 04:08:16;;;;;;;13.38;7.50;;;;;;;;;;5051204;28;20485;-65
2022/07/24 04:10:42;;;;;;;14.00;7.18;;;;;;;;;;5051603;28;20449;-65
2022/07/24 04:13:08;;;;;;;13.30;7.45;;;;;;;;;;5051116;28;20566;-65
2022/07/24 04:15:34;;;;;;;12.93;7.28;;;;;;;;;;5052047;28;20053;-64
2022/07/24 04:18:00;;;;;;;13.15;7.50;;;;;;;;;;5052093;28;20045;-69
2022/07/24 04:20:26;;;;;;;13.68;7.18;;;;;;;;;;5052726;28;20052;-64
2022/07/24 04:22:52;;;;;;;14.13;7.63;;;;;;;;;;5038546;28;20342;-64
2022/07/24 04:25:19;;;;;;;13.02;6.95;;;;;;;;;;5055670;28;20520;-64
2022/07/24 04:27:45;;;;;;;14.07;7.30;;;;;;;;;;5055540;28;20040;-65
2022/07/24 04:30:11;;;;;;;15.77;7.20;;;;;;;;;;5055142;28;20393;-65
2022/07/24 04:32:38;;;;;;;12.32;7.20;;;;;;;;;;5055883;28;20207;-64
2022/07/24 04:35:04;;;;;;;;;;;;;;;;;;5055674;28;20484;-65
2022/07/24 04:37:30;;;;;;;14.35;7.82;;;;;;;;;;5055433;28;19920;-64
2022/07/24 04:39:56;;;;;;;14.63;7.90;;;;;;;;;;5055434;28;20110;-64
2022/07/24 04:42:22;;;;;;;13.02;7.80;;;;;;;;;;5055477;28;20049;-64
2022/07/24 04:44:48;;;;;;;14.13;7.65;;;;;;;;;;5055550;28;20492;-65
2022/07/24 04:47:14;;;;;;;13.23;7.68;;;;;;;;;;5055339;28;20051;-64
2022/07/24 04:49:40;;;;;;;13.15;7.65;;;;;;;;;;5055321;28;20133;-64
2022/07/24 04:52:06;;;;;;;13.82;7.75;;;;;;;;;;5055454;28;20060;-64
2022/07/24 04:54:32;;;;;;;13.88;7.55;;;;;;;;;;5055903;28;20060;-64
2022/07/24 04:56:59;;;;;;;12.27;7.63;;;;;;;;;;5055559;28;20045;-65
2022/07/24 04:59:25;;;;;;;13.70;7.97;;;;;;;;;;5055977;28;20151;-65
2022/07/24 05:01:51;;;;;;;12.38;7.45;;;;;;;;;;5037543;28;20052;-64
2022/07/24 05:04:17;;;;;;;15.50;8.23;;;;;;;;;;5055594;28;20056;-63
2022/07/24 05:06:45;;;;;;;;;;;;;;;;;;5055459;28;20037;-65
2022/07/24 05:09:12;;;;;;;13.80;7.97;;;;;;;;;;5054772;28;19927;-65
2022/07/24 05:11:38;;;;;;;13.68;8.05;;;;;;;;;;5054811;28;20045;-64
2022/07/24 05:14:04;;;;;;;15.75;7.90;;;;;;;;;;5055612;28;20052;-65
2022/07/24 05:16:30;;;;;;;24.27;8.35;;;;;;;;;;5055245;28;20052;-64
2022/07/24 05:18:56;;;;;;;12.75;7.18;;;;;;;;;;5055067;28;20045;-64
2022/07/24 05:21:22;;;;;;;14.48;7.57;;;;;;;;;;5054944;28;20045;-64
2022/07/24 05:23:48;;;;;;;14.02;8.07;;;;;;;;;;5036968;28;20126;-65
2022/07/24 05:26:14;;;;;;;14.15;7.90;;;;;;;;;;5054830;28;20060;-64
2022/07/24 05:28:40;;;;;;;13.95;7.90;;;;;;;;;;5054368;28;20049;-64
2022/07/24 05:31:08;;;;;;;15.60;8.70;;;;;;;;;;5036791;28;20064;-68
2022/07/24 05:33:34;;;;;;;14.32;8.15;;;;;;;;;;5054814;28;20461;-64
2022/07/24 05:36:00;;;;;;;15.90;8.48;;;;;;;;;;5054018;28;20102;-65
2022/07/24 05:38:26;;;;;;;14.52;8.30;;;;;;;;;;5054239;28;20396;-64
2022/07/24 05:40:52;;;;;;;;;;;;;;;;;;5055077;28;20052;-64
2022/07/24 05:43:18;;;;;;;13.77;8.73;;;;;;;;;;5054161;28;19921;-65
2022/07/24 05:45:44;;;;;;;16.30;8.88;;;;;;;;;;5054227;28;20049;-65
2022/07/24 05:48:10;;;;;;;;;;;;;;;;;;5054081;28;20052;-65
2022/07/24 05:50:36;;;;;;;14.07;8.57;;;;;;;;;;5053600;28;20023;-65
2022/07/24 05:53:03;;;;;;;15.02;9.02;;;;;;;;;;5054634;28;20380;-65
2022/07/24 05:55:29;;;;;;;16.67;9.23;;;;;;;;;;5053777;28;20120;-64
2022/07/24 05:57:55;;;;;;;;;;;;;;;;;;5054183;28;20128;-65
2022/07/24 06:00:21;;;;;;;17.60;9.68;;;;;;;;;;5036300;28;19971;-65
2022/07/24 06:02:47;;;;;;;;;;;;;;;;;;5054265;28;20108;-64
2022/07/24 06:05:14;;;;;;;15.60;8.95;;;;;;;;;;5054314;28;19979;-65
2022/07/24 06:07:41;;;;;;;16.52;10.18;;;;;;;;;;5053960;28;20123;-65
2022/07/24 06:10:07;;;;;;;16.10;9.80;;;;;;;;;;5054254;28;20052;-65
2022/07/24 06:12:33;;;;;;;15.57;9.73;;;;;;;;;;5053996;28;20053;-66
2022/07/24 06:14:59;;;;;;;17.92;10.68;;;;;;;;;;5053695;28;20100;-64
2022/07/24 06:17:25;;;;;;;16.77;10.50;;;;;;;;;;5053649;28;20052;-65
2022/07/24 06:19:51;;;;;;;20.65;10.68;;;;;;;;;;5053747;28;20045;-66
2022/07/24 06:22:17;;;;;;;17.80;11.20;;;;;;;;;;5053410;28;20179;-68
2022/07/24 06:24:43;;;;;;;17.08;11.18;;;;;;;;;;5053231;28;20095;-65
2022/07/24 06:27:09;;;;;;;17.42;10.77;;;;;;;;;;5054007;28;20041;-66
2022/07/24 06:29:35;;;;;;;18.92;10.95;;;;;;;;;;5053249;28;20045;-65
2022/07/24 06:32:01;;;;;;;19.13;11.48;;;;;;;;;;5052970;28;20057;-65
2022/07/24 06:34:27;;;;;;;19.83;12.65;;;;;;;;;;5052861;28;20056;-66
2022/07/24 06:36:53;;;;;;;18.50;12.05;;;;;;;;;;5052947;28;20048;-69
2022/07/24 06:39:21;;;;;;;18.23;11.98;;;;;;;;;;5052996;28;20436;-66
2022/07/24 06:41:48;;;;;;;;;;;;;;;;;;5053154;28;20064;-65
2022/07/24 06:44:14;;;;;;;20.40;12.00;;;;;;;;;;5035073;28;20352;-64
2022/07/24 06:46:40;;;;;;;21.27;13.15;;;;;;;;;;5052516;28;20041;-65
2022/07/24 06:49:06;;;;;;;;;;;;;;;;;;5053122;28;20084;-67
2022/07/24 06:51:32;;;;;;;24.50;13.35;;;;;;;;;;5052466;28;20081;-67
2022/07/24 06:53:58;;;;;;;21.05;13.43;;;;;;;;;;5052683;28;20110;-65
2022/07/24 06:56:24;;;;;;;22.70;14.50;;;;;;;;;;5052450;28;20140;-67
2022/07/24 06:58:50;;;;;;;21.63;13.55;;;;;;;;;;5052481;28;20048;-65
2022/07/24 07:01:16;;;;;;;23.48;14.13;;;;;;;;;;5052291;28;20056;-65
2022/07/24 07:03:42;;;;;;;22.80;14.27;;;;;;;;;;5052437;28;20048;-66
2022/07/24 07:06:08;;;;;;;20.92;14.00;;;;;;;;;;5052345;28;20131;-66
2022/07/24 07:08:34;;;;;;;;;;;;;;;;;;5053317;28;20045;-65
2022/07/24 07:11:01;;;;;;;23.55;15.00;;;;;;;;;;5052476;28;19920;-65
2022/07/24 07:13:27;;;;;;;;;;;;;;;;;;5052813;28;20131;-66
2022/07/24 07:15:53;;;;;;;23.92;14.00;;;;;;;;;;5052415;28;19960;-65
2022/07/24 07:18:19;;;;;;;22.30;13.75;;;;;;;;;;5052343;28;20064;-65
2022/07/24 07:20:45;;;;;;;22.08;14.05;;;;;;;;;;5052395;28;20055;-65
2022/07/24 07:23:11;;;;;;;21.13;13.57;;;;;;;;;;5052062;28;20049;-65
2022/07/24 07:25:37;;;;;;;20.63;13.27;;;;;;;;;;5052167;28;20111;-66
2022/07/24 07:28:03;;;;;;;19.27;12.82;;;;;;;;;;5052305;28;20458;-66
2022/07/24 07:30:29;;;;;;;22.65;12.98;;;;;;;;;;5051915;28;20403;-67
2022/07/24 07:32:55;;;;;;;20.52;12.55;;;;;;;;;;5052054;28;20381;-66
2022/07/24 07:35:22;;;;;;;20.00;12.30;;;;;;;;;;5052358;28;20053;-67
2022/07/24 07:37:49;;;;;;;20.42;11.60;;;;;;;;;;5051922;28;20232;-67
2022/07/24 07:40:15;;;;;;;20.20;11.05;;;;;;;;;;5052488;28;20385;-66
2022/07/24 07:42:41;;;;;;;;;;;;;;;;;;5053251;28;20049;-67
2022/07/24 07:45:07;;;;;;;17.13;9.82;;;;;;;;;;5052738;28;20340;-65
2022/07/24 07:47:36;;;;;;;16.83;8.48;;;;;;;;;;5052610;28;20052;-68
2022/07/24 07:50:03;;;;;;;19.40;7.57;;;;;;;;;;5035165;28;20429;-65
2022/07/24 07:52:29;;;;;;;11.48;6.07;;;;;;;;;;5052906;28;20127;-66
2022/07/24 07:54:55;;;;;;;;;;;;;;;;;;5053816;28;20056;-66
2022/07/24 07:57:21;;;;;;;12.82;6.38;;;;;;;;;;5056523;28;19925;-65
2022/07/24 07:59:47;;;;;;;;;;;;;;;;;;5057004;28;20092;-66
2022/07/24 08:02:15;;;;;;;11.63;5.95;;;;;;;;;;5057001;28;19920;-65
2022/07/24 08:04:41;;;;;;;12.30;5.57;;;;;;;;;;5055864;28;20123;-67
2022/07/24 08:07:07;;;;;;;;;;;;;;;;;;5056548;28;20041;-66
2022/07/24 08:09:33;;;;;;;10.90;5.57;;;;;;;;;;5056311;28;19920;-66
2022/07/24 08:11:59;;;;;;;10.73;5.72;;;;;;;;;;5056700;28;20444;-66
2022/07/24 08:14:25;;;;;;;;;;;;;;;;;;5057994;28;20124;-65
2022/07/24 08:16:51;;;;;;;11.93;5.47;;;;;;;;;;5056395;28;20406;-65
2022/07/24 08:19:17;;;;;;;13.60;6.15;;;;;;;;;;5056687;28;20098;-66
2022/07/24 08:21:45;;;;;;;14.57;6.63;;;;;;;;;;5056829;28;20049;-65
2022/07/24 08:24:11;;;;;;;13.85;5.90;;;;;;;;;;5056453;28;20136;-67
2022/07/24 08:26:38;;;;;;;;;;;;;;;;;;5056622;28;20077;-65
2022/07/24 08:29:04;;;;;;;17.55;6.60;;;;;;;;;;5056458;28;20369;-64
2022/07/24 08:31:30;;;;;;;12.90;5.72;;;;;;;;;;5056087;28;20142;-63
2022/07/24 08:33:56;;;;;;;12.35;5.78;;;;;;;;;;5056022;28;20500;-64
2022/07/24 08:36:22;;;;;;;11.00;5.15;;;;;;;;;;5056226;28;20094;-65
2022/07/24 08:38:48;;;;;;;;;;;;;;;;;;5056533;28;20049;-66
2022/07/24 08:41:15;;;;;;;11.25;5.55;;;;;;;;;;5055030;28;19948;-66
2022/07/24 08:43:41;;;;;;;12.57;5.85;;;;;;;;;;5055875;28;20041;-67
2022/07/24 08:46:07;;;;;;;;;;;;;;;;;;5056905;28;20136;-66
2022/07/24 08:48:33;;;;;;;11.32;5.70;;;;;;;;;;5038457;28;19964;-68
2022/07/24 08:51:00;;;;;;;11.52;5.65;;;;;;;;;;5055774;28;20475;-68
2022/07/24 08:53:26;;;;;;;10.93;5.72;;;;;;;;;;5055901;28;20492;-66
2022/07/24 08:55:52;;;;;;;;;;;;;;;;;;5056499;28;20045;-65
2022/07/24 08:58:18;;;;;;;11.98;5.47;;;;;;;;;;5055955;28;19920;-67
2022/07/24 09:00:44;;;;;;;16.42;5.95;;;;;;;;;;5055723;28;20052;-68
2022/07/24 09:03:12;;;;;;;10.73;5.40;;;;;;;;;;5055461;28;20132;-67
2022/07/24 09:05:57;;;;;;;17.90;6.03;;;;;;;;;;5055378;28;20076;-71
2022/07/24 09:08:23;;;;;;;12.00;5.75;;;;;;;;;;5055192;28;20116;-68
2022/07/24 09:11:00;;;;;;;11.15;5.55;;;;;;;;;;5055843;28;20489;-67
2022/07/24 09:13:27;;;;;;;11.70;5.47;;;;;;;;;;5055557;28;20045;-66
2022/07/24 09:15:53;;;;;;;11.20;5.28;;;;;;;;;;5055677;28;20045;-65
2022/07/24 09:18:32;;;;;;;12.90;5.40;;;;;;;;;;5055488;28;20080;-64
2022/07/24 09:21:00;;;;;;;12.13;5.70;;;;;;;;;;5055845;28;20045;-66
2022/07/24 09:23:26;;;;;;;11.77;5.55;;;;;;;;;;5055518;28;20049;-68
2022/07/24 09:25:53;;;;;;;11.27;5.60;;;;;;;;;;5055503;28;20041;-66
2022/07/24 09:28:19;;;;;;;13.60;5.60;;;;;;;;;;5055542;28;20041;-65
2022/07/24 09:30:46;;;;;;;14.95;5.53;;;;;;;;;;5055040;28;20051;-64
2022/07/24 09:33:12;;;;;;;9.82;4.93;;;;;;;;;;5055270;28;20053;-65
2022/07/24 09:35:38;;;;;;;;;;;;;;;;;;5055384;28;20103;-65
2022/07/24 09:38:05;;;;;;;15.05;5.28;;;;;;;;;;5054928;28;19929;-67
2022/07/24 09:40:33;;;;;;;13.73;5.45;;;;;;;;;;5054791;28;20488;-66
2022/07/24 09:43:18;;;;;;;12.30;5.07;;;;;;;;;;5055646;28;20409;-66
2022/07/24 09:45:56;;;;;;;13.32;4.97;;;;;;;;;;5055111;28;20049;-66
2022/07/24 09:48:23;;;;;;;17.80;4.93;;;;;;;;;;5055365;28;20041;-65
2022/07/24 09:50:59;;;;;;;11.10;4.20;;;;;;;;;;5054251;28;20051;-66
2022/07/24 09:53:26;;;;;;;11.40;4.53;;;;;;;;;;5055039;28;20139;-64
2022/07/24 09:55:59;;;;;;;11.15;4.30;;;;;;;;;;5054397;28;20137;-63
2022/07/24 09:58:26;;;;;;;13.05;4.45;;;;;;;;;;5054138;28;20055;-66
2022/07/24 10:00:55;;;;;;;12.10;4.47;;;;;;;;;;5054170;28;20071;-65
2022/07/24 10:03:24;;;;;;;11.63;4.70;;;;;;;;;;5054097;28;20085;-65
2022/07/24 10:05:53;;;;;;;8.70;3.97;;;;;;;;;;5053963;28;20052;-67
2022/07/24 10:08:19;;;;;;;10.98;4.22;;;;;;;;;;5036786;28;20112;-65
2022/07/24 10:10:46;;;;;;;9.18;3.75;;;;;;;;;;5053984;28;20041;-65
2022/07/24 10:13:12;;;;;;;13.52;4.25;;;;;;;;;;5053827;28;20056;-66
2022/07/24 10:15:46;;;;;;;13.65;4.20;;;;;;;;;;5053235;28;20053;-63
2022/07/24 10:18:12;;;;;;;10.65;4.45;;;;;;;;;;5054263;28;20124;-67
2022/07/24 10:20:39;;;;;;;;;;;;;;;;;;5054656;28;20519;-64
2022/07/24 10:23:05;;;;;;;10.70;3.90;;;;;;;;;;5053681;28;20364;-66
2022/07/24 10:25:43;;;;;;;8.60;3.60;;;;;;;;;;5054298;28;20049;-63
2022/07/24 10:28:14;;;;;;;11.07;4.13;;;;;;;;;;5052602;28;20052;-67
2022/07/24 10:30:40;;;;;;;8.55;3.92;;;;;;;;;;5054077;28;20045;-66
2022/07/24 10:33:06;;;;;;;8.80;4.22;;;;;;;;;;5053185;28;20057;-68
2022/07/24 10:35:35;;;;;;;11.45;4.50;;;;;;;;;;5052703;28;20513;-66
2022/07/24 10:38:06;;;;;;;11.15;4.05;;;;;;;;;;5052968;28;20045;-66
2022/07/24 10:40:43;;;;;;;10.23;3.95;;;;;;;;;;5035408;28;20048;-65
2022/07/24 10:43:11;;;;;;;10.48;4.38;;;;;;;;;;5052616;28;20579;-65
2022/07/24 10:45:38;;;;;;;9.40;4.07;;;;;;;;;;5052794;28;20524;-65
2022/07/24 10:48:23;;;;;;;9.77;4.22;;;;;;;;;;5053173;28;20048;-66
2022/07/24 10:51:05;;;;;;;12.25;4.13;;;;;;;;;;5053006;28;20059;-65
2022/07/24 10:53:38;;;;;;;9.63;3.85;;;;;;;;;;5036517;28;20044;-66
2022/07/24 10:56:16;;;;;;;10.23;3.63;;;;;;;;;;5052831;28;20480;-66
2022/07/24 10:58:51;;;;;;;11.68;4.15;;;;;;;;;;5052673;28;20049;-65
2022/07/24 11:01:31;;;;;;;13.00;4.07;;;;;;;;;;5053181;28;20044;-64
2022/07/24 11:03:58;;;;;;;12.05;3.70;;;;;;;;;;5052727;28;20071;-65
2022/07/24 11:06:44;;;;;;;9.80;3.85;;;;;;;;;;5052910;28;20056;-67
2022/07/24 11:09:10;;;;;;;11.80;4.00;;;;;;;;;;5052700;28;20045;-67
2022/07/24 11:11:56;;;;;;;12.30;3.90;;;;;;;;;;5052598;28;20045;-69
2022/07/24 11:14:23;;;;;;;11.15;4.00;;;;;;;;;;5039389;28;20191;-69
2022/07/24 11:16:49;;;;;;;11.15;4.30;;;;;;;;;;5053601;28;20087;-67
2022/07/24 11:19:15;;;;;;;10.18;3.88;;;;;;;;;;5052708;28;20462;-68
2022/07/24 11:21:43;;;;;;;11.15;4.10;;;;;;;;;;5053300;28;20393;-70
2022/07/24 11:24:21;;;;;;;10.45;4.10;;;;;;;;;;5052853;28;20399;-65
2022/07/24 11:26:50;;;;;;;8.60;3.88;;;;;;;;;;5053318;28;20048;-69
2022/07/24 11:29:17;;;;;;;11.93;4.40;;;;;;;;;;5052286;28;20122;-70
2022/07/24 11:31:44;;;;;;;10.15;3.63;;;;;;;;;;5052455;28;20064;-71
2022/07/24 11:34:10;;;;;;;11.38;4.70;;;;;;;;;;5053114;28;20049;-71
2022/07/24 11:36:37;;;;;;;12.88;3.90;;;;;;;;;;5052156;28;20052;-65
2022/07/24 11:39:04;;;;;;;10.50;3.65;;;;;;;;;;5051690;28;20052;-68
2022/07/24 11:41:44;;;;;;;10.27;4.00;;;;;;;;;;5051371;28;20478;-69
2022/07/24 11:44:10;;;;;;;9.98;4.00;;;;;;;;;;5051897;28;20053;-70
2022/07/24 11:46:37;;;;;;;11.07;4.10;;;;;;;;;;5052824;28;20064;-72
2022/07/24 11:49:04;;;;;;;10.13;3.85;;;;;;;;;;5052195;28;20060;-68
2022/07/24 11:51:30;;;;;;;11.63;3.75;;;;;;;;;;5052592;28;20056;-73
2022/07/24 11:53:56;;;;;;;11.20;4.10;;;;;;;;;;5050831;28;20085;-69
2022/07/24 11:56:23;;;;;;;10.45;4.00;;;;;;;;;;5052208;28;20520;-71
2022/07/24 11:58:49;;;;;;;9.75;3.88;;;;;;;;;;5052353;28;20138;-71
2022/07/24 12:01:22;;;;;;;13.23;3.92;;;;;;;;;;5051677;28;20049;-69
2022/07/24 12:03:52;;;;;;;10.18;4.03;;;;;;;;;;5051731;28;20067;-66
2022/07/24 12:06:18;;;;;;;9.82;4.05;;;;;;;;;;5051505;28;20048;-72
2022/07/24 12:08:45;;;;;;;9.57;4.05;;;;;;;;;;5051991;28;20052;-66
2022/07/24 12:11:11;;;;;;;9.13;3.60;;;;;;;;;;5052349;28;20055;-68
2022/07/24 12:13:41;;;;;;;9.75;3.75;;;;;;;;;;5052496;28;20334;-65
2022/07/24 12:16:08;;;;;;;10.82;3.88;;;;;;;;;;5052589;28;20457;-71
2022/07/24 12:18:34;;;;;;;9.38;3.83;;;;;;;;;;5052789;28;20127;-67
2022/07/24 12:21:01;;;;;;;9.65;4.03;;;;;;;;;;5052677;28;20045;-71
2022/07/24 12:23:31;;;;;;;8.82;3.55;;;;;;;;;;5051949;28;20048;-75
2022/07/24 12:25:57;;;;;;;9.52;4.18;;;;;;;;;;5052072;28;20041;-71
2022/07/24 12:28:23;;;;;;;9.85;3.80;;;;;;;;;;5051725;28;20392;-70
2022/07/24 12:30:53;;;;;;;11.30;3.90;;;;;;;;;;5051690;28;20041;-67
2022/07/24 12:33:24;;;;;;;11.35;3.72;;;;;;;;;;5052178;28;20496;-70
2022/07/24 12:35:56;;;;;;;10.55;3.78;;;;;;;;;;5052232;28;20045;-70
2022/07/24 12:38:31;;;;;;;14.30;3.90;;;;;;;;;;5051873;28;20045;-71
2022/07/24 12:41:01;;;;;;;12.65;3.83;;;;;;;;;;5051213;28;20052;-70
2022/07/24 12:43:28;;;;;;;9.35;3.78;;;;;;;;;;5054894;28;20537;-70
2022/07/24 12:46:08;;;;;;;9.82;4.28;;;;;;;;;;5037267;28;20057;-65
2022/07/24 12:48:34;;;;;;;11.48;4.05;;;;;;;;;;5055195;28;20089;-75
2022/07/24 12:51:01;;;;;;;11.20;4.13;;;;;;;;;;5055204;28;20119;-71
2022/07/24 12:53:28;;;;;;;8.95;3.60;;;;;;;;;;5054480;28;20370;-71
2022/07/24 12:56:02;;;;;;;10.65;4.20;;;;;;;;;;5054075;28;20057;-68
2022/07/24 12:58:28;;;;;;;9.45;3.85;;;;;;;;;;5054335;28;20446;-68
2022/07/24 13:00:58;;;;;;;10.40;3.72;;;;;;;;;;5054342;28;20049;-72
2022/07/24 13:03:25;;;;;;;10.05;4.00;;;;;;;;;;5054448;28;20087;-69
2022/07/24 13:05:55;;;;;;;8.70;3.55;;;;;;;;;;5054530;28;20117;-68
2022/07/24 13:08:21;;;;;;;9.55;3.90;;;;;;;;;;5054939;28;20040;-67
2022/07/24 13:10:47;;;;;;;13.30;4.05;;;;;;;;;;5036525;28;20053;-64
2022/07/24 13:13:13;;;;;;;10.23;4.00;;;;;;;;;;5053779;28;20111;-73
2022/07/24 13:15:39;;;;;;;9.02;3.60;;;;;;;;;;5054032;28;20052;-77
2022/07/24 13:18:06;;;;;;;9.73;3.72;;;;;;;;;;5036651;28;20049;-68
2022/07/24 13:20:32;;;;;;;8.82;3.70;;;;;;;;;;5053879;28;20075;-67
2022/07/24 13:22:58;;;;;;;9.30;3.58;;;;;;;;;;5054241;28;20053;-65
2022/07/24 13:25:24;;;;;;;11.80;3.80;;;;;;;;;;5053856;28;20064;-67
2022/07/24 13:27:50;;;;;;;9.15;3.65;;;;;;;;;;5053675;28;20045;-63
2022/07/24 13:30:16;;;;;;;11.95;3.78;;;;;;;;;;5036292;28;20045;-66
2022/07/24 13:32:42;;;;;;;9.13;3.78;;;;;;;;;;5053585;28;20068;-64
2022/07/24 13:35:09;;;;;;;10.40;4.13;;;;;;;;;;5036345;28;20376;-67
2022/07/24 13:37:35;;;;;;;10.40;3.88;;;;;;;;;;5035634;28;20134;-69
2022/07/24 13:40:03;;;;;;;9.85;4.18;;;;;;;;;;5053366;28;20102;-64
2022/07/24 13:42:29;;;;;;;9.68;4.20;;;;;;;;;;5053239;28;20116;-68
2022/07/24 13:44:55;;;;;;;9.95;3.67;;;;;;;;;;5036238;28;20094;-64
2022/07/24 13:47:22;;;;;;;11.43;4.35;;;;;;;;;;5052929;28;20044;-71
2022/07/24 13:49:48;;;;;;;10.05;4.20;;;;;;;;;;5053265;28;20103;-69
2022/07/24 13:52:15;;;;;;;9.82;3.80;;;;;;;;;;5018720;28;20044;-70
2022/07/24 13:54:41;;;;;;;9.32;3.83;;;;;;;;;;5052908;28;20053;-72
2022/07/24 13:57:07;;;;;;;11.90;4.00;;;;;;;;;;5035611;28;20392;-67
2022/07/24 13:59:34;;;;;;;10.35;4.15;;;;;;;;;;5052421;28;20489;-67
2022/07/24 14:02:00;;;;;;;10.48;3.95;;;;;;;;;;5052643;28;20060;-67
2022/07/24 14:04:26;;;;;;;9.18;3.80;;;;;;;;;;5052655;28;20044;-66
2022/07/24 14:06:52;;;;;;;10.07;4.00;;;;;;;;;;5052903;28;20041;-68
2022/07/24 14:09:18;;;;;;;10.18;4.03;;;;;;;;;;5052631;28;20045;-71
2022/07/24 14:11:44;;;;;;;10.70;4.20;;;;;;;;;;5052439;28;20055;-64
2022/07/24 14:14:10;;;;;;;11.23;3.97;;;;;;;;;;5052456;28;20266;-68
2022/07/24 14:16:36;;;;;;;9.32;4.07;;;;;;;;;;5052697;28;20045;-64
2022/07/24 14:19:03;;;;;;;10.30;4.18;;;;;;;;;;5052368;28;20107;-69
2022/07/24 14:21:30;;;;;;;13.43;4.20;;;;;;;;;;5053124;28;20053;-64
2022/07/24 14:23:56;;;;;;;11.38;4.10;;;;;;;;;;5052479;28;20045;-68
2022/07/24 14:26:22;;;;;;;9.27;4.10;;;;;;;;;;5052224;28;20090;-69
2022/07/24 14:28:48;;;;;;;8.30;3.80;;;;;;;;;;5052606;28;20135;-64
2022/07/24 14:31:14;;;;;;;10.48;3.92;;;;;;;;;;5052258;28;20057;-66
2022/07/24 14:33:40;;;;;;;9.55;4.03;;;;;;;;;;5052357;28;20052;-67
2022/07/24 14:36:06;;;;;;;9.85;3.90;;;;;;;;;;5052315;28;20049;-67
2022/07/24 14:38:32;;;;;;;9.75;3.97;;;;;;;;;;5052083;28;20435;-66
2022/07/24 14:40:59;;;;;;;8.52;3.70;;;;;;;;;;5052272;28;20099;-68